createdAt,value
2019-03-05T00:00:33.927Z,0
2019-03-05T00:01:14.464Z,0
2019-03-05T00:01:55.024Z,0
2019-03-05T00:02:35.619Z,0
2019-03-05T00:03:16.157Z,0
2019-03-05T00:03:56.721Z,0
2019-03-05T00:04:37.269Z,0
2019-03-05T00:05:17.840Z,0
2019-03-05T00:05:58.441Z,0
2019-03-05T00:06:39.023Z,0
2019-03-05T00:07:19.581Z,0
2019-03-05T00:08:00.206Z,0
2019-03-05T00:08:40.779Z,0
2019-03-05T00:09:21.330Z,0
2019-03-05T00:10:01.884Z,0
2019-03-05T00:10:42.496Z,0
2019-03-05T00:11:23.105Z,0
2019-03-05T00:12:03.659Z,0
2019-03-05T00:12:44.253Z,0
2019-03-05T00:13:24.813Z,0
2019-03-05T00:14:05.360Z,0
2019-03-05T00:14:45.919Z,0
2019-03-05T00:15:26.499Z,0
2019-03-05T00:16:07.068Z,0
2019-03-05T00:16:47.679Z,0
2019-03-05T00:17:28.228Z,0
2019-03-05T00:18:08.791Z,0
2019-03-05T00:18:49.404Z,0
2019-03-05T00:19:29.949Z,0
2019-03-05T00:20:10.593Z,0
2019-03-05T00:20:51.087Z,0
2019-03-05T00:21:31.653Z,0
2019-03-05T00:22:12.245Z,0
2019-03-05T00:22:52.827Z,0
2019-03-05T00:23:33.371Z,0
2019-03-05T00:24:13.925Z,0
2019-03-05T00:24:54.508Z,0
2019-03-05T00:25:35.052Z,0
2019-03-05T00:26:15.623Z,0
2019-03-05T00:26:56.246Z,0
2019-03-05T00:27:36.769Z,0
2019-03-05T00:28:17.331Z,0
2019-03-05T00:28:57.930Z,0
2019-03-05T00:29:38.541Z,0
2019-03-05T00:30:19.110Z,0
2019-03-05T00:30:59.665Z,0
2019-03-05T00:31:40.225Z,0
2019-03-05T00:32:20.820Z,0
2019-03-05T00:33:01.382Z,0
2019-03-05T00:33:41.938Z,0
2019-03-05T00:34:22.503Z,0
2019-03-05T00:35:03.064Z,0
2019-03-05T00:35:43.618Z,0
2019-03-05T00:36:24.176Z,0
2019-03-05T00:37:04.756Z,0
2019-03-05T00:37:45.300Z,0
2019-03-05T00:38:25.882Z,0
2019-03-05T00:39:06.453Z,0
2019-03-05T00:39:47.008Z,0
2019-03-05T00:40:27.581Z,0
2019-03-05T00:41:08.157Z,0
2019-03-05T00:41:48.719Z,0
2019-03-05T00:42:29.262Z,0
2019-03-05T00:43:09.812Z,0
2019-03-05T00:43:50.379Z,0
2019-03-05T00:44:30.951Z,0
2019-03-05T00:45:11.531Z,0
2019-03-05T00:45:52.098Z,0
2019-03-05T00:46:32.662Z,0
2019-03-05T00:47:13.218Z,0
2019-03-05T00:47:53.806Z,0
2019-03-05T00:48:34.361Z,0
2019-03-05T00:49:14.947Z,0
2019-03-05T00:49:55.555Z,0
2019-03-05T00:50:36.121Z,0
2019-03-05T00:51:24.429Z,0
2019-03-05T00:51:57.258Z,0
2019-03-05T00:52:37.800Z,0
2019-03-05T00:53:18.374Z,0
2019-03-05T00:53:58.945Z,0
2019-03-05T00:54:39.505Z,0
2019-03-05T00:55:20.073Z,0
2019-03-05T00:56:00.658Z,0
2019-03-05T00:56:41.409Z,0
2019-03-05T00:57:21.963Z,0
2019-03-05T00:58:02.545Z,0
2019-03-05T00:58:43.102Z,0
2019-03-05T00:59:23.661Z,0
2019-03-05T01:00:04.249Z,0
2019-03-05T01:00:44.830Z,0
2019-03-05T01:01:25.399Z,0
2019-03-05T01:02:05.951Z,0
2019-03-05T01:02:46.525Z,0
2019-03-05T01:03:27.107Z,0
2019-03-05T01:04:07.672Z,0
2019-03-05T01:04:48.652Z,0
2019-03-05T01:05:28.822Z,0
2019-03-05T01:06:09.394Z,0
2019-03-05T01:06:49.949Z,0
2019-03-05T01:07:30.492Z,0
2019-03-05T01:08:11.058Z,0
2019-03-05T01:08:51.603Z,0
2019-03-05T01:09:32.185Z,0
2019-03-05T01:10:12.754Z,0
2019-03-05T01:10:53.303Z,0
2019-03-05T01:11:33.893Z,0
2019-03-05T01:12:14.499Z,0
2019-03-05T01:12:55.063Z,0
2019-03-05T01:13:35.625Z,0
2019-03-05T01:14:16.190Z,0
2019-03-05T01:14:56.757Z,0
2019-03-05T01:15:37.309Z,0
2019-03-05T01:16:17.880Z,0
2019-03-05T01:16:58.503Z,0
2019-03-05T01:17:39.922Z,0
2019-03-05T01:18:20.513Z,0
2019-03-05T01:19:01.082Z,0
2019-03-05T01:19:41.636Z,0
2019-03-05T01:20:22.190Z,0
2019-03-05T01:21:02.762Z,0
2019-03-05T01:21:43.368Z,0
2019-03-05T01:22:23.951Z,0
2019-03-05T01:23:04.518Z,0
2019-03-05T01:23:45.101Z,0
2019-03-05T01:24:25.660Z,0
2019-03-05T01:25:06.249Z,0
2019-03-05T01:25:46.799Z,0
2019-03-05T01:26:27.354Z,0
2019-03-05T01:27:07.934Z,0
2019-03-05T01:27:48.538Z,0
2019-03-05T01:28:29.107Z,0
2019-03-05T01:29:09.665Z,0
2019-03-05T01:29:50.213Z,0
2019-03-05T01:30:30.761Z,0
2019-03-05T01:31:11.374Z,0
2019-03-05T01:31:51.867Z,0
2019-03-05T01:32:32.427Z,0
2019-03-05T01:33:12.975Z,0
2019-03-05T01:33:53.541Z,0
2019-03-05T01:34:34.122Z,0
2019-03-05T01:35:14.685Z,0
2019-03-05T01:35:55.259Z,0
2019-03-05T01:36:35.813Z,0
2019-03-05T01:37:16.386Z,0
2019-03-05T01:37:56.999Z,0
2019-03-05T01:38:37.570Z,0
2019-03-05T01:39:18.134Z,0
2019-03-05T01:39:58.674Z,0
2019-03-05T01:40:39.237Z,0
2019-03-05T01:41:19.803Z,0
2019-03-05T01:42:00.394Z,0
2019-03-05T01:42:40.954Z,0
2019-03-05T01:43:21.515Z,0
2019-03-05T01:44:02.086Z,0
2019-03-05T01:44:42.684Z,0
2019-03-05T01:45:23.247Z,0
2019-03-05T01:46:03.808Z,0
2019-03-05T01:46:44.357Z,0
2019-03-05T01:47:24.930Z,0
2019-03-05T01:48:05.484Z,0
2019-03-05T01:48:46.047Z,0
2019-03-05T01:49:26.647Z,0
2019-03-05T01:50:07.162Z,0
2019-03-05T01:50:47.724Z,0
2019-03-05T01:51:28.271Z,0
2019-03-05T01:52:08.849Z,0
2019-03-05T01:52:49.410Z,0
2019-03-05T01:53:29.993Z,0
2019-03-05T01:54:10.553Z,0
2019-03-05T01:54:51.123Z,0
2019-03-05T01:55:31.669Z,0
2019-03-05T01:56:12.284Z,0
2019-03-05T01:56:52.844Z,0
2019-03-05T01:57:33.404Z,0
2019-03-05T01:58:13.975Z,0
2019-03-05T01:58:54.627Z,0
2019-03-05T01:59:35.177Z,0
2019-03-05T02:00:15.765Z,0
2019-03-05T02:00:56.300Z,0
2019-03-05T02:01:36.887Z,0
2019-03-05T02:02:17.452Z,0
2019-03-05T02:02:58.036Z,0
2019-03-05T02:03:38.603Z,0
2019-03-05T02:04:19.163Z,0
2019-03-05T02:05:00.370Z,0
2019-03-05T02:05:40.729Z,0
2019-03-05T02:06:21.308Z,0
2019-03-05T02:07:01.905Z,0
2019-03-05T02:07:42.473Z,0
2019-03-05T02:08:23.020Z,0
2019-03-05T02:09:03.604Z,0
2019-03-05T02:09:44.183Z,0
2019-03-05T02:10:24.755Z,0
2019-03-05T02:11:05.315Z,0
2019-03-05T02:11:45.879Z,0
2019-03-05T02:12:26.443Z,0
2019-03-05T02:13:07.016Z,0
2019-03-05T02:13:47.593Z,0
2019-03-05T02:14:28.161Z,0
2019-03-05T02:15:08.727Z,0
2019-03-05T02:15:49.291Z,0
2019-03-05T02:16:29.837Z,0
2019-03-05T02:17:10.390Z,0
2019-03-05T02:17:50.936Z,0
2019-03-05T02:18:31.499Z,0
2019-03-05T02:19:12.075Z,0
2019-03-05T02:19:52.654Z,0
2019-03-05T02:20:33.219Z,0
2019-03-05T02:21:13.805Z,0
2019-03-05T02:21:54.368Z,0
2019-03-05T02:22:34.972Z,0
2019-03-05T02:23:15.543Z,0
2019-03-05T02:23:56.098Z,0
2019-03-05T02:24:36.668Z,0
2019-03-05T02:25:17.243Z,0
2019-03-05T02:25:57.853Z,0
2019-03-05T02:26:38.435Z,0
2019-03-05T02:27:19.010Z,0
2019-03-05T02:27:59.586Z,0
2019-03-05T02:28:40.142Z,0
2019-03-05T02:29:20.708Z,0
2019-03-05T02:30:01.296Z,0
2019-03-05T02:30:41.866Z,0
2019-03-05T02:31:22.417Z,0
2019-03-05T02:32:02.992Z,0
2019-03-05T02:32:43.543Z,0
2019-03-05T02:33:24.110Z,0
2019-03-05T02:34:04.701Z,0
2019-03-05T02:34:45.278Z,0
2019-03-05T02:35:25.829Z,0
2019-03-05T02:36:06.386Z,0
2019-03-05T02:36:46.954Z,0
2019-03-05T02:37:27.517Z,0
2019-03-05T02:38:08.113Z,0
2019-03-05T02:38:48.660Z,0
2019-03-05T02:39:29.249Z,0
2019-03-05T02:40:09.812Z,0
2019-03-05T02:40:50.368Z,0
2019-03-05T02:41:30.937Z,0
2019-03-05T02:42:11.520Z,0
2019-03-05T02:42:52.081Z,0
2019-03-05T02:43:32.646Z,0
2019-03-05T02:44:13.220Z,0
2019-03-05T02:44:53.805Z,0
2019-03-05T02:45:34.367Z,0
2019-03-05T02:46:14.925Z,0
2019-03-05T02:46:55.504Z,0
2019-03-05T02:47:36.083Z,0
2019-03-05T02:48:16.650Z,0
2019-03-05T02:48:57.289Z,0
2019-03-05T02:49:37.857Z,0
2019-03-05T02:50:18.433Z,0
2019-03-05T02:50:59.028Z,0
2019-03-05T02:51:39.627Z,0
2019-03-05T02:52:20.228Z,0
2019-03-05T02:53:00.816Z,0
2019-03-05T02:53:41.388Z,0
2019-03-05T02:54:21.970Z,0
2019-03-05T02:55:02.553Z,0
2019-03-05T02:55:43.137Z,0
2019-03-05T02:56:23.740Z,0
2019-03-05T02:57:04.317Z,0
2019-03-05T02:57:44.867Z,0
2019-03-05T02:58:25.489Z,0
2019-03-05T02:59:06.041Z,0
2019-03-05T02:59:46.615Z,0
2019-03-05T03:00:27.195Z,0
2019-03-05T03:01:07.762Z,0
2019-03-05T03:01:48.350Z,0
2019-03-05T03:02:28.906Z,0
2019-03-05T03:03:09.469Z,0
2019-03-05T03:03:50.029Z,0
2019-03-05T03:04:30.575Z,0
2019-03-05T03:05:11.291Z,0
2019-03-05T03:05:51.856Z,0
2019-03-05T03:06:32.425Z,0
2019-03-05T03:07:12.976Z,0
2019-03-05T03:07:53.526Z,0
2019-03-05T03:08:34.090Z,0
2019-03-05T03:09:14.664Z,0
2019-03-05T03:09:55.218Z,0
2019-03-05T03:10:35.822Z,0
2019-03-05T03:11:16.407Z,0
2019-03-05T03:11:56.954Z,0
2019-03-05T03:12:37.501Z,0
2019-03-05T03:13:18.113Z,0
2019-03-05T03:13:58.724Z,0
2019-03-05T03:14:39.280Z,0
2019-03-05T03:15:19.873Z,0
2019-03-05T03:16:00.442Z,0
2019-03-05T03:16:41.006Z,0
2019-03-05T03:17:21.611Z,0
2019-03-05T03:18:02.171Z,0
2019-03-05T03:18:42.817Z,0
2019-03-05T03:19:23.382Z,0
2019-03-05T03:20:03.953Z,0
2019-03-05T03:20:44.538Z,0
2019-03-05T03:21:25.121Z,0
2019-03-05T03:22:05.701Z,0
2019-03-05T03:22:46.288Z,0
2019-03-05T03:23:26.876Z,0
2019-03-05T03:24:07.463Z,0
2019-03-05T03:24:48.032Z,0
2019-03-05T03:25:28.588Z,0
2019-03-05T03:26:09.140Z,0
2019-03-05T03:26:49.725Z,0
2019-03-05T03:27:30.286Z,0
2019-03-05T03:28:10.883Z,0
2019-03-05T03:28:51.435Z,0
2019-03-05T03:29:31.997Z,0
2019-03-05T03:30:12.563Z,0
2019-03-05T03:30:53.127Z,0
2019-03-05T03:31:33.700Z,0
2019-03-05T03:32:14.268Z,0
2019-03-05T03:32:54.838Z,0
2019-03-05T03:33:35.420Z,0
2019-03-05T03:34:15.964Z,0
2019-03-05T03:34:56.509Z,0
2019-03-05T03:35:37.084Z,0
2019-03-05T03:36:17.660Z,0
2019-03-05T03:36:58.210Z,0
2019-03-05T03:37:38.783Z,0
2019-03-05T03:38:19.386Z,0
2019-03-05T03:39:00.035Z,0
2019-03-05T03:39:40.515Z,0
2019-03-05T03:40:21.090Z,0
2019-03-05T03:41:01.661Z,0
2019-03-05T03:41:42.245Z,0
2019-03-05T03:42:22.814Z,0
2019-03-05T03:43:03.392Z,0
2019-03-05T03:43:43.943Z,0
2019-03-05T03:44:24.501Z,0
2019-03-05T03:45:05.066Z,0
2019-03-05T03:45:45.675Z,0
2019-03-05T03:46:26.242Z,0
2019-03-05T03:47:06.844Z,0
2019-03-05T03:47:47.433Z,0
2019-03-05T03:48:27.973Z,0
2019-03-05T03:49:08.555Z,0
2019-03-05T03:49:49.135Z,0
2019-03-05T03:50:29.702Z,0
2019-03-05T03:51:10.304Z,0
2019-03-05T03:51:51.464Z,0
2019-03-05T03:52:31.513Z,0
2019-03-05T03:53:12.102Z,0
2019-03-05T03:53:52.688Z,0
2019-03-05T03:54:33.270Z,0
2019-03-05T03:55:13.859Z,0
2019-03-05T03:55:54.425Z,0
2019-03-05T03:56:35.013Z,0
2019-03-05T03:57:15.577Z,0
2019-03-05T03:57:56.144Z,0
2019-03-05T03:58:36.697Z,0
2019-03-05T03:59:17.273Z,0
2019-03-05T03:59:57.831Z,0
2019-03-05T04:00:38.392Z,0
2019-03-05T04:01:18.990Z,0
2019-03-05T04:01:59.544Z,0
2019-03-05T04:02:40.112Z,0
2019-03-05T04:03:20.656Z,0
2019-03-05T04:04:01.258Z,0
2019-03-05T04:04:41.789Z,0
2019-03-05T04:05:22.355Z,0
2019-03-05T04:06:02.900Z,0
2019-03-05T04:06:43.471Z,0
2019-03-05T04:07:24.041Z,0
2019-03-05T04:08:04.627Z,0
2019-03-05T04:08:45.206Z,0
2019-03-05T04:09:25.808Z,0
2019-03-05T04:10:06.309Z,0
2019-03-05T04:10:46.914Z,0
2019-03-05T04:11:27.419Z,0
2019-03-05T04:12:08.081Z,0
2019-03-05T04:12:48.637Z,0
2019-03-05T04:13:29.195Z,0
2019-03-05T04:14:09.782Z,0
2019-03-05T04:14:50.342Z,0
2019-03-05T04:15:30.904Z,0
2019-03-05T04:16:11.478Z,0
2019-03-05T04:16:52.045Z,0
2019-03-05T04:17:32.614Z,0
2019-03-05T04:18:13.209Z,0
2019-03-05T04:18:53.831Z,0
2019-03-05T04:19:34.339Z,0
2019-03-05T04:20:14.897Z,0
2019-03-05T04:20:55.464Z,0
2019-03-05T04:21:36.044Z,0
2019-03-05T04:22:16.593Z,0
2019-03-05T04:22:57.125Z,0
2019-03-05T04:23:37.690Z,0
2019-03-05T04:24:18.296Z,0
2019-03-05T04:24:58.865Z,0
2019-03-05T04:25:39.428Z,0
2019-03-05T04:26:20.013Z,0
2019-03-05T04:27:00.589Z,0
2019-03-05T04:27:41.164Z,0
2019-03-05T04:28:21.740Z,0
2019-03-05T04:29:02.335Z,0
2019-03-05T04:29:42.917Z,0
2019-03-05T04:30:23.470Z,0
2019-03-05T04:31:04.038Z,0
2019-03-05T04:31:44.591Z,0
2019-03-05T04:32:25.148Z,0
2019-03-05T04:33:05.715Z,0
2019-03-05T04:33:46.323Z,0
2019-03-05T04:34:26.896Z,0
2019-03-05T04:35:07.454Z,0
2019-03-05T04:35:48.079Z,0
2019-03-05T04:36:28.641Z,0
2019-03-05T04:37:09.202Z,0
2019-03-05T04:37:49.755Z,0
2019-03-05T04:38:30.335Z,0
2019-03-05T04:39:10.886Z,0
2019-03-05T04:39:51.459Z,0
2019-03-05T04:40:32.026Z,0
2019-03-05T04:41:12.605Z,0
2019-03-05T04:41:53.181Z,0
2019-03-05T04:42:33.718Z,0
2019-03-05T04:43:14.307Z,0
2019-03-05T04:43:54.879Z,0
2019-03-05T04:44:35.452Z,0
2019-03-05T04:45:16.019Z,0
2019-03-05T04:45:56.610Z,0
2019-03-05T04:46:37.161Z,0
2019-03-05T04:47:17.729Z,0
2019-03-05T04:47:58.275Z,0
2019-03-05T04:48:38.855Z,0
2019-03-05T04:49:19.401Z,0
2019-03-05T04:49:59.976Z,0
2019-03-05T04:50:40.542Z,0
2019-03-05T04:51:21.108Z,0
2019-03-05T04:52:01.661Z,0
2019-03-05T04:52:42.241Z,0
2019-03-05T04:53:22.817Z,0
2019-03-05T04:54:03.360Z,0
2019-03-05T04:54:43.920Z,0
2019-03-05T04:55:24.548Z,0
2019-03-05T04:56:05.171Z,0
2019-03-05T04:56:45.688Z,0
2019-03-05T04:57:26.250Z,0
2019-03-05T04:58:06.842Z,0
2019-03-05T04:58:47.402Z,0
2019-03-05T04:59:27.970Z,0
2019-03-05T05:00:08.524Z,0
2019-03-05T05:00:49.101Z,0
2019-03-05T05:01:29.652Z,0
2019-03-05T05:02:10.226Z,0
2019-03-05T05:02:50.799Z,0
2019-03-05T05:03:31.355Z,0
2019-03-05T05:04:11.936Z,0
2019-03-05T05:04:52.507Z,0
2019-03-05T05:05:33.094Z,0
2019-03-05T05:06:13.711Z,0
2019-03-05T05:06:54.321Z,0
2019-03-05T05:07:34.879Z,0
2019-03-05T05:08:15.431Z,0
2019-03-05T05:08:55.985Z,0
2019-03-05T05:09:37.825Z,0
2019-03-05T05:10:17.158Z,0
2019-03-05T05:10:57.756Z,0
2019-03-05T05:11:38.320Z,0
2019-03-05T05:12:18.900Z,0
2019-03-05T05:12:59.491Z,0
2019-03-05T05:13:40.067Z,0
2019-03-05T05:14:20.627Z,0
2019-03-05T05:15:01.278Z,0
2019-03-05T05:15:41.800Z,0
2019-03-05T05:16:22.363Z,0
2019-03-05T05:17:02.944Z,0
2019-03-05T05:17:43.521Z,0
2019-03-05T05:18:24.103Z,0
2019-03-05T05:19:04.659Z,0
2019-03-05T05:19:45.220Z,0
2019-03-05T05:20:25.776Z,0
2019-03-05T05:21:06.335Z,0
2019-03-05T05:21:46.939Z,0
2019-03-05T05:22:27.507Z,0
2019-03-05T05:23:08.069Z,0
2019-03-05T05:23:48.617Z,0
2019-03-05T05:24:29.180Z,0
2019-03-05T05:25:09.780Z,0
2019-03-05T05:25:50.358Z,0
2019-03-05T05:26:30.914Z,0
2019-03-05T05:27:11.470Z,0
2019-03-05T05:27:52.045Z,0
2019-03-05T05:28:32.617Z,0
2019-03-05T05:29:13.208Z,0
2019-03-05T05:29:53.772Z,0
2019-03-05T05:30:34.369Z,0
2019-03-05T05:31:14.901Z,0
2019-03-05T05:31:56.380Z,0
2019-03-05T05:32:36.044Z,0
2019-03-05T05:33:16.584Z,0
2019-03-05T05:33:57.146Z,0
2019-03-05T05:34:37.702Z,0
2019-03-05T05:35:18.261Z,0
2019-03-05T05:35:58.862Z,0
2019-03-05T05:36:39.462Z,0
2019-03-05T05:37:20.053Z,0
2019-03-05T05:38:00.679Z,0
2019-03-05T05:38:41.261Z,0
2019-03-05T05:39:21.820Z,0
2019-03-05T05:40:04.702Z,0
2019-03-05T05:40:42.940Z,0
2019-03-05T05:41:23.516Z,0
2019-03-05T05:42:04.093Z,0
2019-03-05T05:42:44.649Z,0
2019-03-05T05:43:26.053Z,0
2019-03-05T05:44:06.630Z,0
2019-03-05T05:44:47.215Z,0
2019-03-05T05:45:27.771Z,0
2019-03-05T05:46:08.348Z,0
2019-03-05T05:46:49.583Z,0
2019-03-05T05:47:30.793Z,0
2019-03-05T05:48:12.064Z,0
2019-03-05T05:48:52.987Z,0
2019-03-05T05:49:34.134Z,0
2019-03-05T05:50:14.965Z,0
2019-03-05T05:50:55.592Z,0
2019-03-05T05:51:36.239Z,0
2019-03-05T05:52:16.895Z,0
2019-03-05T05:52:57.855Z,0
2019-03-05T05:53:38.444Z,0
2019-03-05T05:54:19.017Z,0
2019-03-05T05:54:59.878Z,0
2019-03-05T05:55:40.827Z,0
2019-03-05T05:56:21.467Z,0
2019-03-05T05:57:02.120Z,0
2019-03-05T05:57:42.690Z,0
2019-03-05T05:58:23.355Z,0
2019-03-05T05:59:04.493Z,0
2019-03-05T05:59:45.344Z,0
2019-03-05T06:00:26.147Z,0
2019-03-05T06:01:06.704Z,0
2019-03-05T06:01:47.282Z,0
2019-03-05T06:02:27.901Z,0
2019-03-05T06:03:08.499Z,0
2019-03-05T06:03:49.065Z,0
2019-03-05T06:04:29.638Z,0
2019-03-05T06:05:10.285Z,0
2019-03-05T06:05:50.868Z,0
2019-03-05T06:06:31.405Z,0
2019-03-05T06:07:12.309Z,0
2019-03-05T06:07:52.884Z,5
2019-03-05T06:08:33.488Z,5
2019-03-05T06:09:14.191Z,5
2019-03-05T06:09:54.753Z,5
2019-03-05T06:10:35.327Z,5
2019-03-05T06:11:15.871Z,5
2019-03-05T06:11:56.472Z,5
2019-03-05T06:12:37.013Z,5
2019-03-05T06:13:17.582Z,5
2019-03-05T06:13:58.190Z,5
2019-03-05T06:14:38.743Z,5
2019-03-05T06:15:19.348Z,5
2019-03-05T06:15:59.970Z,5
2019-03-05T06:16:40.561Z,5
2019-03-05T06:17:21.118Z,5
2019-03-05T06:18:01.677Z,10
2019-03-05T06:18:42.245Z,10
2019-03-05T06:19:22.824Z,10
2019-03-05T06:20:03.408Z,10
2019-03-05T06:20:43.972Z,10
2019-03-05T06:21:24.596Z,10
2019-03-05T06:22:05.144Z,10
2019-03-05T06:22:45.730Z,10
2019-03-05T06:23:26.394Z,10
2019-03-05T06:24:06.996Z,10
2019-03-05T06:24:47.563Z,10
2019-03-05T06:25:28.245Z,10
2019-03-05T06:26:08.946Z,10
2019-03-05T06:26:49.519Z,10
2019-03-05T06:27:30.117Z,15
2019-03-05T06:28:10.673Z,15
2019-03-05T06:28:51.276Z,15
2019-03-05T06:29:31.862Z,15
2019-03-05T06:30:12.449Z,15
2019-03-05T06:30:53.021Z,15
2019-03-05T06:31:33.597Z,15
2019-03-05T06:32:14.159Z,15
2019-03-05T06:32:54.785Z,20
2019-03-05T06:33:35.351Z,20
2019-03-05T06:34:15.905Z,20
2019-03-05T06:34:56.468Z,20
2019-03-05T06:35:37.058Z,20
2019-03-05T06:36:17.642Z,20
2019-03-05T06:36:58.212Z,20
2019-03-05T06:37:38.867Z,20
2019-03-05T06:38:19.395Z,20
2019-03-05T06:39:00.018Z,20
2019-03-05T06:39:40.599Z,25
2019-03-05T06:40:21.205Z,25
2019-03-05T06:41:01.781Z,25
2019-03-05T06:41:42.357Z,25
2019-03-05T06:42:22.927Z,25
2019-03-05T06:43:03.569Z,25
2019-03-05T06:43:44.139Z,25
2019-03-05T06:44:24.743Z,25
2019-03-05T06:45:05.458Z,25
2019-03-05T06:45:45.884Z,30
2019-03-05T06:46:26.491Z,30
2019-03-05T06:47:07.061Z,25
2019-03-05T06:47:47.638Z,30
2019-03-05T06:48:28.188Z,35
2019-03-05T06:49:08.757Z,35
2019-03-05T06:49:49.346Z,40
2019-03-05T06:50:29.925Z,45
2019-03-05T06:51:10.497Z,40
2019-03-05T06:51:51.063Z,45
2019-03-05T06:52:31.645Z,50
2019-03-05T06:53:12.277Z,50
2019-03-05T06:53:52.886Z,50
2019-03-05T06:54:33.452Z,55
2019-03-05T06:55:14.024Z,55
2019-03-05T06:55:54.642Z,60
2019-03-05T06:56:35.272Z,60
2019-03-05T06:57:15.856Z,60
2019-03-05T06:57:56.476Z,65
2019-03-05T06:58:37.088Z,65
2019-03-05T06:59:17.654Z,70
2019-03-05T06:59:58.217Z,75
2019-03-05T07:00:38.792Z,75
2019-03-05T07:01:19.363Z,75
2019-03-05T07:01:59.941Z,70
2019-03-05T07:02:40.564Z,75
2019-03-05T07:03:21.115Z,75
2019-03-05T07:04:01.702Z,75
2019-03-05T07:04:42.304Z,75
2019-03-05T07:05:23.294Z,75
2019-03-05T07:06:03.852Z,80
2019-03-05T07:06:44.490Z,80
2019-03-05T07:07:25.046Z,85
2019-03-05T07:08:05.599Z,80
2019-03-05T07:08:46.167Z,85
2019-03-05T07:09:26.764Z,90
2019-03-05T07:10:07.368Z,90
2019-03-05T07:10:47.994Z,90
2019-03-05T07:11:28.543Z,95
2019-03-05T07:12:09.097Z,95
2019-03-05T07:12:49.688Z,95
2019-03-05T07:13:30.284Z,95
2019-03-05T07:14:10.891Z,100
2019-03-05T07:14:51.431Z,100
2019-03-05T07:15:32.028Z,105
2019-03-05T07:16:12.623Z,105
2019-03-05T07:16:53.255Z,105
2019-03-05T07:17:33.807Z,105
2019-03-05T07:18:14.378Z,110
2019-03-05T07:18:54.958Z,115
2019-03-05T07:19:35.531Z,115
2019-03-05T07:20:16.077Z,120
2019-03-05T07:20:56.668Z,120
2019-03-05T07:21:37.273Z,120
2019-03-05T07:22:17.902Z,130
2019-03-05T07:22:58.445Z,135
2019-03-05T07:23:39.005Z,140
2019-03-05T07:24:19.610Z,135
2019-03-05T07:25:00.355Z,135
2019-03-05T07:25:41.221Z,145
2019-03-05T07:26:21.792Z,160
2019-03-05T07:27:02.352Z,140
2019-03-05T07:27:42.910Z,150
2019-03-05T07:28:23.498Z,160
2019-03-05T07:29:04.076Z,155
2019-03-05T07:29:44.634Z,170
2019-03-05T07:30:25.195Z,170
2019-03-05T07:31:05.743Z,170
2019-03-05T07:31:46.328Z,175
2019-03-05T07:32:26.929Z,165
2019-03-05T07:33:07.501Z,145
2019-03-05T07:33:48.094Z,120
2019-03-05T07:34:28.669Z,150
2019-03-05T07:35:09.244Z,150
2019-03-05T07:35:49.801Z,175
2019-03-05T07:36:30.390Z,525
2019-03-05T07:37:10.987Z,315
2019-03-05T07:37:51.542Z,1010
2019-03-05T07:38:32.112Z,1035
2019-03-05T07:39:12.804Z,600
2019-03-05T07:39:53.401Z,270
2019-03-05T07:40:34.090Z,650
2019-03-05T07:41:14.784Z,685
2019-03-05T07:41:55.607Z,1045
2019-03-05T07:42:36.226Z,110
2019-03-05T07:43:16.766Z,120
2019-03-05T07:43:57.352Z,130
2019-03-05T07:44:37.907Z,150
2019-03-05T07:45:18.511Z,200
2019-03-05T07:45:59.056Z,145
2019-03-05T07:46:39.741Z,135
2019-03-05T07:47:20.319Z,290
2019-03-05T07:48:00.911Z,1365
2019-03-05T07:48:41.462Z,860
2019-03-05T07:49:22.051Z,1085
2019-03-05T07:50:02.613Z,1210
2019-03-05T07:50:43.312Z,815
2019-03-05T07:51:23.954Z,175
2019-03-05T07:52:04.521Z,140
2019-03-05T07:52:45.105Z,120
2019-03-05T07:53:25.670Z,85
2019-03-05T07:54:06.221Z,85
2019-03-05T07:54:46.826Z,90
2019-03-05T07:55:27.424Z,105
2019-03-05T07:56:07.983Z,240
2019-03-05T07:56:48.545Z,230
2019-03-05T07:57:29.098Z,895
2019-03-05T07:58:09.697Z,1070
2019-03-05T07:58:50.272Z,125
2019-03-05T07:59:30.837Z,150
2019-03-05T08:00:11.402Z,210
2019-03-05T08:00:51.980Z,90
2019-03-05T08:01:35.945Z,130
2019-03-05T08:02:16.897Z,235
2019-03-05T08:02:57.494Z,1130
2019-03-05T08:03:38.087Z,165
2019-03-05T08:04:18.646Z,180
2019-03-05T08:04:59.709Z,135
2019-03-05T08:05:39.867Z,135
2019-03-05T08:06:20.434Z,225
2019-03-05T08:07:01.031Z,130
2019-03-05T08:07:41.599Z,110
2019-03-05T08:08:26.502Z,95
2019-03-05T08:09:02.748Z,80
2019-03-05T08:09:43.318Z,85
2019-03-05T08:10:23.995Z,65
2019-03-05T08:11:04.560Z,65
2019-03-05T08:11:45.201Z,80
2019-03-05T08:12:25.863Z,95
2019-03-05T08:13:06.459Z,105
2019-03-05T08:13:47.076Z,95
2019-03-05T08:14:27.826Z,95
2019-03-05T08:15:08.402Z,735
2019-03-05T08:15:48.960Z,85
2019-03-05T08:16:29.515Z,110
2019-03-05T08:17:10.079Z,100
2019-03-05T08:17:50.631Z,140
2019-03-05T08:18:31.230Z,65
2019-03-05T08:19:11.826Z,55
2019-03-05T08:19:52.394Z,60
2019-03-05T08:20:33.021Z,60
2019-03-05T08:21:13.621Z,50
2019-03-05T08:21:54.351Z,50
2019-03-05T08:22:34.823Z,50
2019-03-05T08:23:15.416Z,45
2019-03-05T08:23:56.266Z,55
2019-03-05T08:24:36.958Z,55
2019-03-05T08:25:17.581Z,50
2019-03-05T08:25:58.145Z,50
2019-03-05T08:26:38.781Z,50
2019-03-05T08:27:19.342Z,50
2019-03-05T08:27:59.920Z,50
2019-03-05T08:28:40.470Z,55
2019-03-05T08:29:21.041Z,55
2019-03-05T08:30:13.420Z,55
2019-03-05T08:30:42.184Z,60
2019-03-05T08:31:22.736Z,55
2019-03-05T08:32:03.299Z,55
2019-03-05T08:32:43.868Z,45
2019-03-05T08:33:24.415Z,35
2019-03-05T08:34:04.995Z,35
2019-03-05T08:34:45.587Z,35
2019-03-05T08:35:26.247Z,35
2019-03-05T08:36:06.817Z,35
2019-03-05T08:36:47.377Z,35
2019-03-05T08:37:27.934Z,35
2019-03-05T08:38:08.510Z,35
2019-03-05T08:38:49.088Z,35
2019-03-05T08:39:29.637Z,35
2019-03-05T08:40:10.227Z,40
2019-03-05T08:40:50.789Z,55
2019-03-05T08:41:31.389Z,65
2019-03-05T08:42:11.979Z,70
2019-03-05T08:42:52.541Z,90
2019-03-05T08:43:33.127Z,210
2019-03-05T08:44:13.829Z,255
2019-03-05T08:44:54.402Z,145
2019-03-05T08:45:34.971Z,145
2019-03-05T08:46:15.599Z,195
2019-03-05T08:46:56.223Z,700
2019-03-05T08:47:36.806Z,220
2019-03-05T08:48:17.354Z,560
2019-03-05T08:48:57.908Z,220
2019-03-05T08:49:38.530Z,465
2019-03-05T08:50:19.119Z,180
2019-03-05T08:50:59.691Z,810
2019-03-05T08:51:40.366Z,200
2019-03-05T08:52:20.915Z,170
2019-03-05T08:53:01.515Z,165
2019-03-05T08:53:49.370Z,170
2019-03-05T08:54:22.780Z,480
2019-03-05T08:55:03.597Z,180
2019-03-05T08:55:44.468Z,145
2019-03-05T08:56:25.050Z,120
2019-03-05T08:57:05.621Z,110
2019-03-05T08:57:46.197Z,95
2019-03-05T08:58:26.840Z,85
2019-03-05T08:59:07.395Z,70
2019-03-05T08:59:47.986Z,70
2019-03-05T09:00:28.593Z,70
2019-03-05T09:01:09.326Z,75
2019-03-05T09:01:49.948Z,85
2019-03-05T09:02:30.527Z,100
2019-03-05T09:03:11.147Z,125
2019-03-05T09:03:51.704Z,130
2019-03-05T09:04:32.275Z,130
2019-03-05T09:05:13.272Z,130
2019-03-05T09:05:53.824Z,245
2019-03-05T09:06:34.394Z,220
2019-03-05T09:07:15.078Z,155
2019-03-05T09:07:55.542Z,170
2019-03-05T09:08:38.359Z,255
2019-03-05T09:09:16.680Z,235
2019-03-05T09:09:57.262Z,230
2019-03-05T09:10:37.828Z,175
2019-03-05T09:11:18.393Z,150
2019-03-05T09:11:58.963Z,125
2019-03-05T09:12:39.546Z,135
2019-03-05T09:13:20.122Z,165
2019-03-05T09:14:00.721Z,140
2019-03-05T09:14:41.299Z,120
2019-03-05T09:15:21.854Z,155
2019-03-05T09:16:02.445Z,165
2019-03-05T09:16:43.023Z,160
2019-03-05T09:17:23.590Z,120
2019-03-05T09:18:04.200Z,140
2019-03-05T09:18:44.785Z,155
2019-03-05T09:19:25.342Z,155
2019-03-05T09:20:05.939Z,145
2019-03-05T09:20:46.509Z,125
2019-03-05T09:21:28.002Z,120
2019-03-05T09:22:08.989Z,135
2019-03-05T09:22:49.604Z,135
2019-03-05T09:23:30.212Z,130
2019-03-05T09:24:10.789Z,140
2019-03-05T09:24:51.684Z,165
2019-03-05T09:25:32.437Z,175
2019-03-05T09:26:13.002Z,150
2019-03-05T09:26:54.827Z,140
2019-03-05T09:27:35.432Z,125
2019-03-05T09:28:16.075Z,110
2019-03-05T09:28:56.767Z,105
2019-03-05T09:29:40.322Z,105
2019-03-05T09:30:20.746Z,115
2019-03-05T09:31:01.342Z,125
2019-03-05T09:31:41.922Z,130
2019-03-05T09:32:22.539Z,125
2019-03-05T09:33:03.502Z,120
2019-03-05T09:33:43.971Z,95
2019-03-05T09:34:24.571Z,90
2019-03-05T09:35:05.391Z,105
2019-03-05T09:35:46.477Z,115
2019-03-05T09:36:27.985Z,105
2019-03-05T09:37:07.846Z,135
2019-03-05T09:37:48.469Z,120
2019-03-05T09:38:29.047Z,125
2019-03-05T09:39:09.616Z,130
2019-03-05T09:39:50.204Z,130
2019-03-05T09:40:30.817Z,115
2019-03-05T09:41:11.368Z,125
2019-03-05T09:41:52.190Z,115
2019-03-05T09:42:39.727Z,110
2019-03-05T09:43:13.318Z,115
2019-03-05T09:43:53.921Z,105
2019-03-05T09:44:34.497Z,100
2019-03-05T09:45:15.073Z,115
2019-03-05T09:45:55.683Z,140
2019-03-05T09:46:36.302Z,155
2019-03-05T09:47:16.976Z,135
2019-03-05T09:47:57.732Z,115
2019-03-05T09:48:39.452Z,100